Denison, Kansas
Current Conditions -  °F | °C
As of 12:05 PM on Sunday 21 Dec 2014 (Local Time) from KFOE Reporting Station
Overcast Overcast  
Wind Chill: 37°   Ceiling: 1000
Heat Index: 44°   Visibility: 10mi
Dew Point: 39°   Wind: 16mph
Humidity: 82%   Direction: 170°S
Pressure: 29.89"   Gusts: 23mph
Location:  39.39°N, 95.63°W
Report Text: KFOE 211805Z 17014G20KT 10SM OVC010 07/04 A2989 RMK AO2 CIG 009V014 T00670039 $
Loading
Personal Weather Stations






























Interactive Weather Map New forecast layout! Learn more

10-Day Weather Forecast

Advertisements
Track Severe Weather on mobile